sensor_id;sensor_type;location;lat;lon;timestamp;P1;durP1;ratioP1;P2;durP2;ratioP2
462;SDS011;218;51.902;9.542;2023-09-19T00:01:45;6.43;;;1.83;;
462;SDS011;218;51.902;9.542;2023-09-19T00:04:14;1.77;;;1.67;;
462;SDS011;218;51.902;9.542;2023-09-19T00:06:41;2.30;;;1.70;;
462;SDS011;218;51.902;9.542;2023-09-19T00:09:09;2.27;;;2.00;;
462;SDS011;218;51.902;9.542;2023-09-19T00:11:36;1.80;;;1.70;;
462;SDS011;218;51.902;9.542;2023-09-19T00:14:04;1.60;;;1.50;;
462;SDS011;218;51.902;9.542;2023-09-19T00:16:33;1.53;;;1.43;;
462;SDS011;218;51.902;9.542;2023-09-19T00:19:01;2.00;;;1.87;;
462;SDS011;218;51.902;9.542;2023-09-19T00:21:35;1.60;;;1.50;;
462;SDS011;218;51.902;9.542;2023-09-19T00:24:03;1.90;;;1.70;;
462;SDS011;218;51.902;9.542;2023-09-19T00:26:31;1.37;;;1.33;;
462;SDS011;218;51.902;9.542;2023-09-19T00:28:59;1.80;;;1.70;;
462;SDS011;218;51.902;9.542;2023-09-19T00:31:30;3.10;;;2.00;;
462;SDS011;218;51.902;9.542;2023-09-19T00:33:58;1.90;;;1.80;;
462;SDS011;218;51.902;9.542;2023-09-19T00:36:29;2.63;;;1.60;;
462;SDS011;218;51.902;9.542;2023-09-19T00:38:57;1.87;;;1.77;;
462;SDS011;218;51.902;9.542;2023-09-19T00:41:24;1.80;;;1.70;;
462;SDS011;218;51.902;9.542;2023-09-19T00:43:55;1.80;;;1.70;;
462;SDS011;218;51.902;9.542;2023-09-19T00:46:22;2.20;;;2.00;;
462;SDS011;218;51.902;9.542;2023-09-19T00:48:50;2.13;;;1.60;;
462;SDS011;218;51.902;9.542;2023-09-19T00:51:18;2.73;;;2.10;;
462;SDS011;218;51.902;9.542;2023-09-19T00:53:47;1.77;;;1.67;;
462;SDS011;218;51.902;9.542;2023-09-19T00:56:15;1.83;;;1.73;;
462;SDS011;218;51.902;9.542;2023-09-19T00:58:43;1.57;;;1.47;;
462;SDS011;218;51.902;9.542;2023-09-19T01:01:11;1.87;;;1.57;;
462;SDS011;218;51.902;9.542;2023-09-19T01:03:40;2.50;;;1.67;;
462;SDS011;218;51.902;9.542;2023-09-19T01:06:07;3.00;;;1.77;;
462;SDS011;218;51.902;9.542;2023-09-19T01:08:34;2.00;;;1.90;;
462;SDS011;218;51.902;9.542;2023-09-19T01:11:04;1.80;;;1.70;;
462;SDS011;218;51.902;9.542;2023-09-19T01:13:38;1.97;;;1.77;;
462;SDS011;218;51.902;9.542;2023-09-19T01:16:10;2.60;;;2.20;;
462;SDS011;218;51.902;9.542;2023-09-19T01:18:40;3.23;;;1.80;;
462;SDS011;218;51.902;9.542;2023-09-19T01:21:11;3.40;;;2.13;;
462;SDS011;218;51.902;9.542;2023-09-19T01:23:58;1.83;;;1.70;;
462;SDS011;218;51.902;9.542;2023-09-19T01:26:30;2.10;;;2.00;;
462;SDS011;218;51.902;9.542;2023-09-19T01:29:34;2.53;;;2.33;;
462;SDS011;218;51.902;9.542;2023-09-19T01:32:05;2.60;;;2.23;;
462;SDS011;218;51.902;9.542;2023-09-19T01:34:45;2.27;;;2.17;;
462;SDS011;218;51.902;9.542;2023-09-19T01:37:13;2.40;;;2.30;;
462;SDS011;218;51.902;9.542;2023-09-19T01:39:44;2.73;;;2.53;;
462;SDS011;218;51.902;9.542;2023-09-19T01:42:18;2.60;;;2.40;;
462;SDS011;218;51.902;9.542;2023-09-19T01:44:50;2.67;;;1.97;;
462;SDS011;218;51.902;9.542;2023-09-19T01:47:23;5.17;;;3.23;;
462;SDS011;218;51.902;9.542;2023-09-19T01:49:58;2.07;;;1.87;;
462;SDS011;218;51.902;9.542;2023-09-19T01:52:28;2.63;;;2.37;;
462;SDS011;218;51.902;9.542;2023-09-19T01:54:59;2.13;;;2.03;;
462;SDS011;218;51.902;9.542;2023-09-19T01:57:33;2.73;;;2.40;;
462;SDS011;218;51.902;9.542;2023-09-19T02:00:03;2.30;;;2.10;;
462;SDS011;218;51.902;9.542;2023-09-19T02:02:33;2.90;;;2.70;;
462;SDS011;218;51.902;9.542;2023-09-19T02:05:01;3.00;;;2.50;;
462;SDS011;218;51.902;9.542;2023-09-19T02:07:29;2.73;;;2.53;;
462;SDS011;218;51.902;9.542;2023-09-19T02:09:57;2.93;;;2.70;;
462;SDS011;218;51.902;9.542;2023-09-19T02:12:25;2.90;;;2.70;;
462;SDS011;218;51.902;9.542;2023-09-19T02:14:52;3.57;;;2.70;;
462;SDS011;218;51.902;9.542;2023-09-19T02:17:22;2.70;;;2.40;;
462;SDS011;218;51.902;9.542;2023-09-19T02:19:52;3.33;;;2.83;;
462;SDS011;218;51.902;9.542;2023-09-19T02:22:19;3.27;;;3.00;;
462;SDS011;218;51.902;9.542;2023-09-19T02:24:47;3.80;;;3.50;;
462;SDS011;218;51.902;9.542;2023-09-19T02:27:16;5.27;;;3.70;;
462;SDS011;218;51.902;9.542;2023-09-19T02:29:43;3.90;;;3.47;;
462;SDS011;218;51.902;9.542;2023-09-19T02:32:10;3.90;;;3.70;;
462;SDS011;218;51.902;9.542;2023-09-19T02:34:37;3.30;;;3.10;;
462;SDS011;218;51.902;9.542;2023-09-19T02:37:06;3.73;;;3.43;;
462;SDS011;218;51.902;9.542;2023-09-19T02:39:34;3.63;;;3.43;;
462;SDS011;218;51.902;9.542;2023-09-19T02:42:01;4.67;;;3.40;;
462;SDS011;218;51.902;9.542;2023-09-19T02:44:30;6.23;;;4.90;;
462;SDS011;218;51.902;9.542;2023-09-19T02:46:57;3.43;;;3.20;;
462;SDS011;218;51.902;9.542;2023-09-19T02:49:24;4.20;;;3.80;;
462;SDS011;218;51.902;9.542;2023-09-19T02:51:52;3.60;;;3.30;;
462;SDS011;218;51.902;9.542;2023-09-19T02:54:21;3.53;;;3.23;;
462;SDS011;218;51.902;9.542;2023-09-19T02:56:48;3.50;;;3.17;;
462;SDS011;218;51.902;9.542;2023-09-19T02:59:15;3.37;;;3.13;;
462;SDS011;218;51.902;9.542;2023-09-19T03:01:44;4.10;;;3.80;;
462;SDS011;218;51.902;9.542;2023-09-19T03:04:13;4.17;;;3.73;;
462;SDS011;218;51.902;9.542;2023-09-19T03:06:44;4.30;;;3.00;;
462;SDS011;218;51.902;9.542;2023-09-19T03:09:16;5.97;;;4.60;;
462;SDS011;218;51.902;9.542;2023-09-19T03:11:45;5.20;;;4.53;;
462;SDS011;218;51.902;9.542;2023-09-19T03:14:13;3.57;;;3.37;;
462;SDS011;218;51.902;9.542;2023-09-19T03:16:40;4.00;;;3.70;;
462;SDS011;218;51.902;9.542;2023-09-19T03:19:09;4.33;;;4.03;;
462;SDS011;218;51.902;9.542;2023-09-19T03:21:37;3.70;;;3.40;;
462;SDS011;218;51.902;9.542;2023-09-19T03:24:04;3.93;;;3.63;;
462;SDS011;218;51.902;9.542;2023-09-19T03:26:32;4.07;;;3.77;;
462;SDS011;218;51.902;9.542;2023-09-19T03:29:00;7.03;;;4.67;;
462;SDS011;218;51.902;9.542;2023-09-19T03:31:31;7.97;;;4.27;;
462;SDS011;218;51.902;9.542;2023-09-19T03:33:58;8.23;;;3.70;;
462;SDS011;218;51.902;9.542;2023-09-19T03:36:26;3.93;;;3.73;;
462;SDS011;218;51.902;9.542;2023-09-19T03:38:53;6.33;;;4.47;;
462;SDS011;218;51.902;9.542;2023-09-19T03:41:20;5.27;;;3.50;;
462;SDS011;218;51.902;9.542;2023-09-19T03:43:48;3.63;;;3.37;;
462;SDS011;218;51.902;9.542;2023-09-19T03:46:16;6.10;;;4.47;;
462;SDS011;218;51.902;9.542;2023-09-19T03:48:44;4.80;;;3.80;;
462;SDS011;218;51.902;9.542;2023-09-19T03:51:11;3.90;;;3.50;;
462;SDS011;218;51.902;9.542;2023-09-19T03:53:38;4.07;;;3.70;;
462;SDS011;218;51.902;9.542;2023-09-19T03:56:05;3.97;;;3.30;;
462;SDS011;218;51.902;9.542;2023-09-19T03:58:33;4.90;;;3.60;;
462;SDS011;218;51.902;9.542;2023-09-19T04:01:04;6.20;;;3.63;;
462;SDS011;218;51.902;9.542;2023-09-19T04:03:33;5.73;;;3.50;;
462;SDS011;218;51.902;9.542;2023-09-19T04:06:11;4.73;;;4.30;;
462;SDS011;218;51.902;9.542;2023-09-19T04:08:39;5.40;;;4.00;;
462;SDS011;218;51.902;9.542;2023-09-19T04:11:06;6.93;;;4.60;;
462;SDS011;218;51.902;9.542;2023-09-19T04:13:33;4.77;;;3.53;;
462;SDS011;218;51.902;9.542;2023-09-19T04:16:00;4.23;;;3.90;;
462;SDS011;218;51.902;9.542;2023-09-19T04:18:28;4.00;;;3.63;;
462;SDS011;218;51.902;9.542;2023-09-19T04:20:59;4.50;;;4.10;;
462;SDS011;218;51.902;9.542;2023-09-19T04:23:28;4.50;;;4.10;;
462;SDS011;218;51.902;9.542;2023-09-19T04:25:56;4.27;;;3.87;;
462;SDS011;218;51.902;9.542;2023-09-19T04:28:23;4.33;;;3.87;;
462;SDS011;218;51.902;9.542;2023-09-19T04:30:52;4.93;;;3.90;;
462;SDS011;218;51.902;9.542;2023-09-19T04:33:20;5.60;;;4.03;;
462;SDS011;218;51.902;9.542;2023-09-19T04:35:48;4.03;;;3.73;;
462;SDS011;218;51.902;9.542;2023-09-19T04:38:17;5.33;;;4.17;;
462;SDS011;218;51.902;9.542;2023-09-19T04:40:44;4.30;;;3.97;;
462;SDS011;218;51.902;9.542;2023-09-19T04:43:11;5.23;;;3.90;;
462;SDS011;218;51.902;9.542;2023-09-19T04:45:40;4.77;;;3.97;;
462;SDS011;218;51.902;9.542;2023-09-19T04:48:08;6.27;;;5.63;;
462;SDS011;218;51.902;9.542;2023-09-19T04:50:35;4.77;;;4.07;;
462;SDS011;218;51.902;9.542;2023-09-19T04:53:03;3.10;;;2.90;;
462;SDS011;218;51.902;9.542;2023-09-19T04:55:33;5.33;;;3.97;;
462;SDS011;218;51.902;9.542;2023-09-19T04:58:01;4.20;;;3.90;;
462;SDS011;218;51.902;9.542;2023-09-19T05:00:29;4.10;;;3.70;;
462;SDS011;218;51.902;9.542;2023-09-19T05:03:00;3.90;;;3.50;;
462;SDS011;218;51.902;9.542;2023-09-19T05:05:29;6.27;;;3.60;;
462;SDS011;218;51.902;9.542;2023-09-19T05:07:56;3.67;;;3.10;;
462;SDS011;218;51.902;9.542;2023-09-19T05:10:24;6.53;;;4.20;;
462;SDS011;218;51.902;9.542;2023-09-19T05:12:53;5.37;;;4.00;;
462;SDS011;218;51.902;9.542;2023-09-19T05:15:21;4.87;;;4.07;;
462;SDS011;218;51.902;9.542;2023-09-19T05:17:48;6.03;;;3.70;;
462;SDS011;218;51.902;9.542;2023-09-19T05:20:16;4.57;;;3.17;;
462;SDS011;218;51.902;9.542;2023-09-19T05:22:50;5.50;;;3.17;;
462;SDS011;218;51.902;9.542;2023-09-19T05:25:17;7.07;;;4.20;;
462;SDS011;218;51.902;9.542;2023-09-19T05:27:45;8.47;;;4.10;;
462;SDS011;218;51.902;9.542;2023-09-19T05:30:14;3.63;;;3.20;;
462;SDS011;218;51.902;9.542;2023-09-19T05:32:41;4.70;;;2.90;;
462;SDS011;218;51.902;9.542;2023-09-19T05:35:09;4.30;;;3.20;;
462;SDS011;218;51.902;9.542;2023-09-19T05:37:38;6.70;;;3.43;;
462;SDS011;218;51.902;9.542;2023-09-19T05:40:05;4.50;;;3.57;;
462;SDS011;218;51.902;9.542;2023-09-19T05:42:35;8.43;;;3.20;;
462;SDS011;218;51.902;9.542;2023-09-19T05:45:03;5.90;;;3.10;;
462;SDS011;218;51.902;9.542;2023-09-19T05:47:32;5.43;;;3.33;;
462;SDS011;218;51.902;9.542;2023-09-19T05:50:00;4.47;;;3.43;;
462;SDS011;218;51.902;9.542;2023-09-19T05:52:28;7.97;;;3.17;;
462;SDS011;218;51.902;9.542;2023-09-19T05:54:55;3.60;;;2.73;;
462;SDS011;218;51.902;9.542;2023-09-19T05:57:22;4.32;;;3.35;;
462;SDS011;218;51.902;9.542;2023-09-19T05:59:49;3.03;;;2.73;;
462;SDS011;218;51.902;9.542;2023-09-19T06:02:17;4.30;;;3.30;;
462;SDS011;218;51.902;9.542;2023-09-19T06:04:46;6.03;;;3.10;;
462;SDS011;218;51.902;9.542;2023-09-19T06:07:13;8.17;;;4.07;;
462;SDS011;218;51.902;9.542;2023-09-19T06:09:41;7.20;;;3.00;;
462;SDS011;218;51.902;9.542;2023-09-19T06:12:08;7.83;;;3.70;;
462;SDS011;218;51.902;9.542;2023-09-19T06:14:38;3.27;;;2.90;;
462;SDS011;218;51.902;9.542;2023-09-19T06:17:06;6.17;;;3.17;;
462;SDS011;218;51.902;9.542;2023-09-19T06:19:33;3.27;;;2.97;;
462;SDS011;218;51.902;9.542;2023-09-19T06:22:02;5.40;;;2.90;;
462;SDS011;218;51.902;9.542;2023-09-19T06:24:29;5.70;;;2.77;;
462;SDS011;218;51.902;9.542;2023-09-19T06:26:56;3.60;;;2.83;;
462;SDS011;218;51.902;9.542;2023-09-19T06:29:26;4.23;;;2.70;;
462;SDS011;218;51.902;9.542;2023-09-19T06:31:53;5.20;;;3.07;;
462;SDS011;218;51.902;9.542;2023-09-19T06:34:21;5.90;;;3.30;;
462;SDS011;218;51.902;9.542;2023-09-19T06:36:48;4.80;;;3.03;;
462;SDS011;218;51.902;9.542;2023-09-19T06:39:16;5.83;;;3.40;;
462;SDS011;218;51.902;9.542;2023-09-19T06:41:43;5.20;;;2.90;;
462;SDS011;218;51.902;9.542;2023-09-19T06:44:11;5.97;;;3.20;;
462;SDS011;218;51.902;9.542;2023-09-19T06:46:38;10.23;;;4.20;;
462;SDS011;218;51.902;9.542;2023-09-19T06:49:07;4.50;;;3.20;;
462;SDS011;218;51.902;9.542;2023-09-19T06:51:35;4.60;;;3.23;;
462;SDS011;218;51.902;9.542;2023-09-19T06:54:03;4.37;;;2.80;;
462;SDS011;218;51.902;9.542;2023-09-19T06:56:31;5.23;;;2.93;;
462;SDS011;218;51.902;9.542;2023-09-19T06:58:59;3.73;;;2.60;;
462;SDS011;218;51.902;9.542;2023-09-19T07:01:27;2.90;;;2.60;;
462;SDS011;218;51.902;9.542;2023-09-19T07:03:56;8.60;;;3.30;;
462;SDS011;218;51.902;9.542;2023-09-19T07:06:23;6.07;;;3.33;;
462;SDS011;218;51.902;9.542;2023-09-19T07:08:50;6.30;;;2.73;;
462;SDS011;218;51.902;9.542;2023-09-19T07:11:18;5.50;;;3.30;;
462;SDS011;218;51.902;9.542;2023-09-19T07:13:47;10.40;;;3.13;;
462;SDS011;218;51.902;9.542;2023-09-19T07:16:15;6.13;;;2.77;;
462;SDS011;218;51.902;9.542;2023-09-19T07:18:52;5.30;;;3.63;;
462;SDS011;218;51.902;9.542;2023-09-19T07:21:20;3.20;;;2.90;;
462;SDS011;218;51.902;9.542;2023-09-19T07:23:47;7.73;;;3.10;;
462;SDS011;218;51.902;9.542;2023-09-19T07:26:14;6.33;;;2.90;;
462;SDS011;218;51.902;9.542;2023-09-19T07:28:42;4.10;;;2.97;;
462;SDS011;218;51.902;9.542;2023-09-19T07:31:10;5.40;;;3.20;;
462;SDS011;218;51.902;9.542;2023-09-19T07:33:39;5.10;;;2.70;;
462;SDS011;218;51.902;9.542;2023-09-19T07:36:09;9.53;;;3.87;;
462;SDS011;218;51.902;9.542;2023-09-19T07:38:38;7.83;;;3.40;;
462;SDS011;218;51.902;9.542;2023-09-19T07:41:05;4.93;;;2.50;;
462;SDS011;218;51.902;9.542;2023-09-19T07:43:34;6.63;;;3.17;;
462;SDS011;218;51.902;9.542;2023-09-19T07:46:04;3.43;;;3.00;;
462;SDS011;218;51.902;9.542;2023-09-19T07:48:33;4.87;;;2.73;;
462;SDS011;218;51.902;9.542;2023-09-19T07:51:03;6.10;;;3.30;;
462;SDS011;218;51.902;9.542;2023-09-19T07:53:31;3.03;;;2.83;;
462;SDS011;218;51.902;9.542;2023-09-19T07:56:03;4.37;;;3.10;;
462;SDS011;218;51.902;9.542;2023-09-19T07:58:31;3.63;;;2.47;;
462;SDS011;218;51.902;9.542;2023-09-19T08:01:03;6.83;;;3.10;;
462;SDS011;218;51.902;9.542;2023-09-19T08:03:31;2.80;;;2.57;;
462;SDS011;218;51.902;9.542;2023-09-19T08:06:00;5.27;;;2.63;;
462;SDS011;218;51.902;9.542;2023-09-19T08:08:29;4.30;;;3.20;;
462;SDS011;218;51.902;9.542;2023-09-19T08:10:56;5.17;;;3.37;;
462;SDS011;218;51.902;9.542;2023-09-19T08:13:23;7.30;;;2.77;;
462;SDS011;218;51.902;9.542;2023-09-19T08:15:50;4.30;;;2.87;;
462;SDS011;218;51.902;9.542;2023-09-19T08:18:18;3.37;;;3.07;;
462;SDS011;218;51.902;9.542;2023-09-19T08:20:49;6.23;;;2.70;;
462;SDS011;218;51.902;9.542;2023-09-19T08:23:18;5.73;;;4.30;;
462;SDS011;218;51.902;9.542;2023-09-19T08:25:46;4.83;;;3.77;;
462;SDS011;218;51.902;9.542;2023-09-19T08:28:13;5.17;;;2.57;;
462;SDS011;218;51.902;9.542;2023-09-19T08:30:44;4.47;;;3.00;;
462;SDS011;218;51.902;9.542;2023-09-19T08:33:11;4.47;;;3.23;;
462;SDS011;218;51.902;9.542;2023-09-19T08:35:41;5.10;;;3.43;;
462;SDS011;218;51.902;9.542;2023-09-19T08:38:09;4.03;;;2.30;;
462;SDS011;218;51.902;9.542;2023-09-19T08:40:38;5.13;;;3.10;;
462;SDS011;218;51.902;9.542;2023-09-19T08:43:07;4.33;;;2.87;;
462;SDS011;218;51.902;9.542;2023-09-19T08:45:34;7.33;;;3.20;;
462;SDS011;218;51.902;9.542;2023-09-19T08:48:05;5.47;;;3.07;;
462;SDS011;218;51.902;9.542;2023-09-19T08:50:39;6.87;;;3.37;;
462;SDS011;218;51.902;9.542;2023-09-19T08:53:10;4.90;;;3.27;;
462;SDS011;218;51.902;9.542;2023-09-19T08:55:39;4.73;;;3.17;;
462;SDS011;218;51.902;9.542;2023-09-19T08:58:09;3.40;;;2.57;;
462;SDS011;218;51.902;9.542;2023-09-19T09:00:38;4.40;;;2.90;;
462;SDS011;218;51.902;9.542;2023-09-19T09:03:08;4.40;;;2.60;;
462;SDS011;218;51.902;9.542;2023-09-19T09:05:36;3.20;;;2.40;;
462;SDS011;218;51.902;9.542;2023-09-19T09:08:05;5.20;;;2.90;;
462;SDS011;218;51.902;9.542;2023-09-19T09:10:33;4.07;;;2.83;;
462;SDS011;218;51.902;9.542;2023-09-19T09:13:02;4.03;;;2.90;;
462;SDS011;218;51.902;9.542;2023-09-19T09:15:34;6.40;;;3.63;;
462;SDS011;218;51.902;9.542;2023-09-19T09:18:02;6.67;;;3.13;;
462;SDS011;218;51.902;9.542;2023-09-19T09:20:30;4.13;;;2.60;;
462;SDS011;218;51.902;9.542;2023-09-19T09:22:57;3.27;;;2.80;;
462;SDS011;218;51.902;9.542;2023-09-19T09:25:46;4.30;;;2.87;;
462;SDS011;218;51.902;9.542;2023-09-19T09:28:19;4.10;;;3.23;;
462;SDS011;218;51.902;9.542;2023-09-19T09:30:46;4.17;;;2.50;;
462;SDS011;218;51.902;9.542;2023-09-19T09:33:14;7.90;;;2.83;;
462;SDS011;218;51.902;9.542;2023-09-19T09:35:51;6.10;;;3.60;;
462;SDS011;218;51.902;9.542;2023-09-19T09:38:19;3.60;;;3.10;;
462;SDS011;218;51.902;9.542;2023-09-19T09:40:47;3.33;;;3.00;;
462;SDS011;218;51.902;9.542;2023-09-19T09:43:31;4.40;;;2.93;;
462;SDS011;218;51.902;9.542;2023-09-19T09:49:05;4.97;;;3.20;;
462;SDS011;218;51.902;9.542;2023-09-19T09:51:50;6.03;;;3.40;;
462;SDS011;218;51.902;9.542;2023-09-19T09:54:24;4.33;;;2.63;;
462;SDS011;218;51.902;9.542;2023-09-19T09:56:58;4.67;;;2.50;;
462;SDS011;218;51.902;9.542;2023-09-19T10:02:10;4.97;;;2.43;;
462;SDS011;218;51.902;9.542;2023-09-19T10:04:38;5.70;;;2.90;;
462;SDS011;218;51.902;9.542;2023-09-19T10:07:23;4.47;;;3.30;;
462;SDS011;218;51.902;9.542;2023-09-19T10:09:53;5.43;;;3.60;;
462;SDS011;218;51.902;9.542;2023-09-19T10:12:29;3.13;;;2.80;;
462;SDS011;218;51.902;9.542;2023-09-19T10:14:59;5.57;;;3.10;;
462;SDS011;218;51.902;9.542;2023-09-19T10:17:28;6.40;;;3.47;;
462;SDS011;218;51.902;9.542;2023-09-19T10:19:57;4.90;;;3.77;;
462;SDS011;218;51.902;9.542;2023-09-19T10:22:26;9.13;;;3.70;;
462;SDS011;218;51.902;9.542;2023-09-19T10:24:56;8.03;;;3.90;;
462;SDS011;218;51.902;9.542;2023-09-19T10:27:25;10.60;;;5.00;;
462;SDS011;218;51.902;9.542;2023-09-19T10:29:54;6.37;;;3.40;;
462;SDS011;218;51.902;9.542;2023-09-19T10:32:24;5.40;;;3.00;;
462;SDS011;218;51.902;9.542;2023-09-19T10:34:55;7.00;;;3.77;;
462;SDS011;218;51.902;9.542;2023-09-19T10:37:23;5.60;;;3.70;;
462;SDS011;218;51.902;9.542;2023-09-19T10:39:51;7.80;;;4.03;;
462;SDS011;218;51.902;9.542;2023-09-19T10:42:19;8.63;;;5.10;;
462;SDS011;218;51.902;9.542;2023-09-19T10:44:47;7.50;;;4.67;;
462;SDS011;218;51.902;9.542;2023-09-19T10:47:18;4.77;;;3.50;;
462;SDS011;218;51.902;9.542;2023-09-19T10:49:49;8.80;;;2.83;;
462;SDS011;218;51.902;9.542;2023-09-19T10:52:20;5.23;;;3.27;;
462;SDS011;218;51.902;9.542;2023-09-19T10:54:48;5.60;;;3.73;;
462;SDS011;218;51.902;9.542;2023-09-19T10:57:19;5.43;;;3.53;;
462;SDS011;218;51.902;9.542;2023-09-19T11:00:02;6.53;;;3.50;;
462;SDS011;218;51.902;9.542;2023-09-19T11:05:32;4.93;;;3.03;;
462;SDS011;218;51.902;9.542;2023-09-19T11:08:01;3.10;;;2.70;;
462;SDS011;218;51.902;9.542;2023-09-19T11:10:44;9.50;;;3.23;;
462;SDS011;218;51.902;9.542;2023-09-19T11:13:23;3.80;;;3.37;;
462;SDS011;218;51.902;9.542;2023-09-19T11:18:52;4.90;;;2.73;;
462;SDS011;218;51.902;9.542;2023-09-19T11:21:41;5.50;;;3.43;;
462;SDS011;218;51.902;9.542;2023-09-19T11:27:09;5.40;;;2.90;;
462;SDS011;218;51.902;9.542;2023-09-19T11:29:38;2.73;;;2.53;;
462;SDS011;218;51.902;9.542;2023-09-19T11:32:06;4.13;;;2.77;;
462;SDS011;218;51.902;9.542;2023-09-19T11:34:41;4.50;;;2.80;;
462;SDS011;218;51.902;9.542;2023-09-19T11:40:06;3.83;;;2.80;;
462;SDS011;218;51.902;9.542;2023-09-19T11:42:42;6.03;;;3.00;;
462;SDS011;218;51.902;9.542;2023-09-19T11:48:12;4.80;;;3.00;;
462;SDS011;218;51.902;9.542;2023-09-19T11:50:41;3.40;;;2.53;;
462;SDS011;218;51.902;9.542;2023-09-19T11:53:09;4.57;;;3.90;;
462;SDS011;218;51.902;9.542;2023-09-19T11:55:37;5.47;;;2.80;;
462;SDS011;218;51.902;9.542;2023-09-19T11:58:05;6.27;;;3.43;;
462;SDS011;218;51.902;9.542;2023-09-19T12:00:34;5.07;;;2.47;;
462;SDS011;218;51.902;9.542;2023-09-19T12:03:03;3.07;;;2.37;;
462;SDS011;218;51.902;9.542;2023-09-19T12:05:34;5.20;;;3.00;;
462;SDS011;218;51.902;9.542;2023-09-19T12:08:02;4.33;;;2.90;;
462;SDS011;218;51.902;9.542;2023-09-19T12:10:32;3.77;;;2.87;;
462;SDS011;218;51.902;9.542;2023-09-19T12:13:00;4.97;;;3.20;;
462;SDS011;218;51.902;9.542;2023-09-19T12:15:29;4.43;;;3.43;;
462;SDS011;218;51.902;9.542;2023-09-19T12:18:00;7.53;;;3.70;;
462;SDS011;218;51.902;9.542;2023-09-19T12:20:41;5.13;;;3.37;;
462;SDS011;218;51.902;9.542;2023-09-19T12:23:12;7.40;;;3.50;;
462;SDS011;218;51.902;9.542;2023-09-19T12:25:43;5.37;;;3.10;;
462;SDS011;218;51.902;9.542;2023-09-19T12:28:11;5.60;;;3.80;;
462;SDS011;218;51.902;9.542;2023-09-19T12:30:40;5.10;;;3.03;;
462;SDS011;218;51.902;9.542;2023-09-19T12:33:14;3.60;;;2.50;;
462;SDS011;218;51.902;9.542;2023-09-19T12:35:44;5.90;;;3.47;;
462;SDS011;218;51.902;9.542;2023-09-19T12:38:21;3.57;;;3.27;;
462;SDS011;218;51.902;9.542;2023-09-19T12:40:49;6.50;;;3.27;;
462;SDS011;218;51.902;9.542;2023-09-19T12:43:17;6.70;;;3.20;;
462;SDS011;218;51.902;9.542;2023-09-19T12:45:46;4.30;;;3.87;;
462;SDS011;218;51.902;9.542;2023-09-19T12:48:23;3.73;;;3.20;;
462;SDS011;218;51.902;9.542;2023-09-19T12:51:02;5.10;;;2.90;;
462;SDS011;218;51.902;9.542;2023-09-19T12:53:31;6.87;;;3.43;;
462;SDS011;218;51.902;9.542;2023-09-19T12:55:59;4.40;;;4.00;;
462;SDS011;218;51.902;9.542;2023-09-19T12:58:26;4.70;;;3.47;;
462;SDS011;218;51.902;9.542;2023-09-19T13:00:56;5.07;;;4.13;;
462;SDS011;218;51.902;9.542;2023-09-19T13:03:27;3.77;;;2.67;;
462;SDS011;218;51.902;9.542;2023-09-19T13:06:00;3.60;;;3.10;;
462;SDS011;218;51.902;9.542;2023-09-19T13:08:29;5.63;;;3.27;;
462;SDS011;218;51.902;9.542;2023-09-19T13:11:05;5.57;;;3.07;;
462;SDS011;218;51.902;9.542;2023-09-19T13:13:39;3.30;;;2.83;;
462;SDS011;218;51.902;9.542;2023-09-19T13:16:08;4.70;;;3.10;;
462;SDS011;218;51.902;9.542;2023-09-19T13:18:45;5.93;;;3.33;;
462;SDS011;218;51.902;9.542;2023-09-19T13:21:15;5.23;;;3.80;;
462;SDS011;218;51.902;9.542;2023-09-19T13:23:49;5.63;;;3.33;;
462;SDS011;218;51.902;9.542;2023-09-19T13:26:17;3.47;;;2.87;;
462;SDS011;218;51.902;9.542;2023-09-19T13:28:44;5.93;;;3.30;;
462;SDS011;218;51.902;9.542;2023-09-19T13:31:14;4.60;;;2.70;;
462;SDS011;218;51.902;9.542;2023-09-19T13:33:45;5.07;;;3.03;;
462;SDS011;218;51.902;9.542;2023-09-19T13:36:12;4.40;;;3.20;;
462;SDS011;218;51.902;9.542;2023-09-19T13:38:39;5.00;;;3.20;;
462;SDS011;218;51.902;9.542;2023-09-19T13:41:08;5.47;;;2.90;;
462;SDS011;218;51.902;9.542;2023-09-19T13:43:36;3.60;;;3.20;;
462;SDS011;218;51.902;9.542;2023-09-19T13:46:03;3.87;;;2.97;;
462;SDS011;218;51.902;9.542;2023-09-19T13:48:33;6.23;;;2.97;;
462;SDS011;218;51.902;9.542;2023-09-19T13:51:01;3.50;;;2.80;;
462;SDS011;218;51.902;9.542;2023-09-19T13:53:29;4.27;;;3.10;;
462;SDS011;218;51.902;9.542;2023-09-19T13:55:56;5.00;;;2.80;;
462;SDS011;218;51.902;9.542;2023-09-19T13:58:24;4.03;;;3.10;;
462;SDS011;218;51.902;9.542;2023-09-19T14:00:52;4.53;;;2.50;;
462;SDS011;218;51.902;9.542;2023-09-19T14:03:21;7.00;;;2.80;;
462;SDS011;218;51.902;9.542;2023-09-19T14:05:50;3.10;;;2.40;;
462;SDS011;218;51.902;9.542;2023-09-19T14:08:17;7.13;;;2.60;;
462;SDS011;218;51.902;9.542;2023-09-19T14:10:44;5.30;;;2.80;;
462;SDS011;218;51.902;9.542;2023-09-19T14:13:12;3.83;;;2.87;;
462;SDS011;218;51.902;9.542;2023-09-19T14:15:40;4.93;;;3.43;;
462;SDS011;218;51.902;9.542;2023-09-19T14:18:07;5.57;;;2.50;;
462;SDS011;218;51.902;9.542;2023-09-19T14:20:37;2.87;;;2.20;;
462;SDS011;218;51.902;9.542;2023-09-19T14:23:06;3.73;;;2.70;;
462;SDS011;218;51.902;9.542;2023-09-19T14:25:34;4.60;;;2.70;;
462;SDS011;218;51.902;9.542;2023-09-19T14:28:01;3.87;;;2.03;;
462;SDS011;218;51.902;9.542;2023-09-19T14:30:28;5.67;;;2.70;;
462;SDS011;218;51.902;9.542;2023-09-19T14:32:55;3.63;;;2.67;;
462;SDS011;218;51.902;9.542;2023-09-19T14:35:23;5.07;;;2.33;;
462;SDS011;218;51.902;9.542;2023-09-19T14:37:50;3.93;;;2.50;;
462;SDS011;218;51.902;9.542;2023-09-19T14:40:19;4.83;;;2.73;;
462;SDS011;218;51.902;9.542;2023-09-19T14:42:47;4.07;;;1.97;;
462;SDS011;218;51.902;9.542;2023-09-19T14:45:15;4.50;;;2.47;;
462;SDS011;218;51.902;9.542;2023-09-19T14:47:43;4.80;;;2.00;;
462;SDS011;218;51.902;9.542;2023-09-19T14:50:10;3.10;;;2.00;;
462;SDS011;218;51.902;9.542;2023-09-19T14:52:38;4.73;;;2.20;;
462;SDS011;218;51.902;9.542;2023-09-19T14:55:06;2.80;;;2.10;;
462;SDS011;218;51.902;9.542;2023-09-19T14:57:35;5.23;;;2.53;;
462;SDS011;218;51.902;9.542;2023-09-19T15:00:05;2.27;;;2.07;;
462;SDS011;218;51.902;9.542;2023-09-19T15:02:37;3.40;;;2.20;;
462;SDS011;218;51.902;9.542;2023-09-19T15:05:05;5.20;;;1.80;;
462;SDS011;218;51.902;9.542;2023-09-19T15:07:33;3.00;;;2.40;;
462;SDS011;218;51.902;9.542;2023-09-19T15:10:01;4.63;;;1.90;;
462;SDS011;218;51.902;9.542;2023-09-19T15:12:32;2.70;;;2.27;;
462;SDS011;218;51.902;9.542;2023-09-19T15:15:01;4.40;;;2.47;;
462;SDS011;218;51.902;9.542;2023-09-19T15:17:30;3.43;;;2.13;;
462;SDS011;218;51.902;9.542;2023-09-19T15:19:57;4.10;;;2.40;;
462;SDS011;218;51.902;9.542;2023-09-19T15:22:25;5.70;;;2.63;;
462;SDS011;218;51.902;9.542;2023-09-19T15:24:52;4.07;;;2.90;;
462;SDS011;218;51.902;9.542;2023-09-19T15:27:20;3.17;;;2.87;;
462;SDS011;218;51.902;9.542;2023-09-19T15:29:47;2.63;;;1.80;;
462;SDS011;218;51.902;9.542;2023-09-19T15:32:16;3.50;;;2.30;;
462;SDS011;218;51.902;9.542;2023-09-19T15:34:43;2.17;;;1.97;;
462;SDS011;218;51.902;9.542;2023-09-19T15:37:10;3.73;;;3.00;;
462;SDS011;218;51.902;9.542;2023-09-19T15:39:37;6.00;;;3.13;;
462;SDS011;218;51.902;9.542;2023-09-19T15:42:04;4.90;;;2.40;;
462;SDS011;218;51.902;9.542;2023-09-19T15:44:31;3.10;;;2.80;;
462;SDS011;218;51.902;9.542;2023-09-19T15:46:58;3.17;;;2.63;;
462;SDS011;218;51.902;9.542;2023-09-19T15:49:27;4.27;;;3.00;;
462;SDS011;218;51.902;9.542;2023-09-19T15:51:54;2.87;;;2.60;;
462;SDS011;218;51.902;9.542;2023-09-19T15:54:22;4.47;;;2.33;;
462;SDS011;218;51.902;9.542;2023-09-19T15:56:49;4.80;;;2.87;;
462;SDS011;218;51.902;9.542;2023-09-19T15:59:16;3.00;;;2.37;;
462;SDS011;218;51.902;9.542;2023-09-19T16:01:44;4.93;;;2.50;;
462;SDS011;218;51.902;9.542;2023-09-19T16:04:11;2.90;;;2.23;;
462;SDS011;218;51.902;9.542;2023-09-19T16:06:41;2.43;;;2.20;;
462;SDS011;218;51.902;9.542;2023-09-19T16:09:08;3.40;;;2.30;;
462;SDS011;218;51.902;9.542;2023-09-19T16:11:35;11.50;;;2.87;;
462;SDS011;218;51.902;9.542;2023-09-19T16:14:03;2.53;;;2.23;;
462;SDS011;218;51.902;9.542;2023-09-19T16:16:31;4.10;;;2.80;;
462;SDS011;218;51.902;9.542;2023-09-19T16:19:00;3.77;;;2.83;;